Terminal Aerodrome Forecast
Issued by NWS Memphis, TN

Current Version | Previous Version | Text Only | Print | Product List | Glossary On
Versions: 1 2 3 4 5 6 7 8 9 10 11 12 13 14 15 16 17 18 19 20 21 22 23 24
844
FTUS44 KMEG 120520
TAFMEM
TAF
KMEM 120520Z 1206/1306 08007KT P6SM BKN250
     FM121800 33010KT P6SM SCT150
     FM122200 36011G17KT P6SM SCT250
     FM130300 02012KT P6SM FEW250=

USA.gov is the U.S. government's official web portal to all federal, state and local government web resources and services.